Time;durP1;ratioP1;P1;durP2;ratioP2;P2;SDS_P1;SDS_P2;PMS_P1;PMS_P2;Temp;Humidity;BMP_temperature;BMP_pressure;BME280_temperature;BME280_humidity;BME280_pressure;Samples;Min_cycle;Max_cycle;Signal;HPM_P1;HPM_P2
2021/11/11 00:00:51;;;;;;;175.60;123.30;;;;;;;0.56;97.85;99956.19;102258;1311;61674;-71
2021/11/11 00:03:19;;;;;;;179.80;124.20;;;;;;;0.53;97.90;99954.80;101914;1316;61248;-72
2021/11/11 00:05:46;;;;;;;172.80;118.90;;;;;;;0.52;97.97;99952.90;102291;1316;75180;-72
2021/11/11 00:08:15;;;;;;;187.70;126.10;;;;;;;0.47;97.82;99951.02;102268;1318;69433;-72
2021/11/11 00:10:42;;;;;;;190.90;128.40;;;;;;;0.44;97.88;99945.98;102201;1311;74599;-72
2021/11/11 00:13:08;;;;;;;182.50;126.70;;;;;;;0.46;98.13;99945.95;101896;1316;61423;-72
2021/11/11 00:15:35;;;;;;;184.90;127.80;;;;;;;0.47;98.19;99946.30;102284;1316;61847;-72
2021/11/11 00:18:02;;;;;;;183.60;123.70;;;;;;;0.47;98.30;99943.33;102228;1316;75337;-71
2021/11/11 00:20:29;;;;;;;184.60;126.00;;;;;;;0.48;98.23;99948.92;102236;1316;69703;-72
2021/11/11 00:22:56;;;;;;;173.90;119.00;;;;;;;0.44;98.03;99946.85;102242;1316;73501;-72
2021/11/11 00:25:24;;;;;;;172.30;119.90;;;;;;;0.40;97.78;99949.86;102260;1317;61358;-72
2021/11/11 00:27:51;;;;;;;180.50;122.10;;;;;;;0.36;97.80;99947.82;102224;1316;62077;-72
2021/11/11 00:30:19;;;;;;;179.20;122.70;;;;;;;0.32;97.80;99949.25;102273;1317;74475;-72
2021/11/11 00:32:46;;;;;;;190.50;123.50;;;;;;;0.29;97.85;99944.75;102310;1317;71076;-72
2021/11/11 00:35:16;;;;;;;176.30;123.00;;;;;;;0.28;97.88;99947.73;102278;1310;72896;-73
2021/11/11 00:37:43;;;;;;;;;;;;;;;0.25;97.95;99954.40;102099;1317;61746;-72
2021/11/11 00:40:11;;;;;;;184.70;120.40;;;;;;;0.23;98.04;99953.89;102273;1317;61961;-71
2021/11/11 00:42:37;;;;;;;203.50;127.30;;;;;;;0.21;98.03;99952.85;101921;1317;76393;-72
2021/11/11 00:45:05;;;;;;;218.60;133.80;;;;;;;0.20;97.92;99961.59;102269;1316;70965;-73
2021/11/11 00:47:33;;;;;;;211.30;129.00;;;;;;;0.16;97.94;99956.75;102423;1318;73973;-73
2021/11/11 00:49:59;;;;;;;206.50;127.30;;;;;;;0.15;98.14;99953.79;102286;1316;61308;-72
2021/11/11 00:52:26;;;;;;;209.90;128.80;;;;;;;0.15;98.16;99952.74;101949;1318;61244;-73
2021/11/11 00:54:53;;;;;;;216.40;132.90;;;;;;;0.14;98.11;99951.52;102288;1316;75373;-72
2021/11/11 00:57:19;;;;;;;201.90;125.00;;;;;;;0.14;98.30;99949.25;102041;1312;70511;-72
2021/11/11 00:59:46;;;;;;;203.90;128.00;;;;;;;0.15;98.06;99949.94;102420;1316;73602;-72
2021/11/11 01:02:13;;;;;;;192.20;121.50;;;;;;;0.14;98.16;99952.23;102284;1316;61416;-72
2021/11/11 01:04:39;;;;;;;192.40;120.50;;;;;;;0.12;98.01;99948.92;102301;1316;61318;-72
2021/11/11 01:07:08;;;;;;;234.40;133.40;;;;;;;0.10;98.03;99945.45;102355;1316;76558;-72
2021/11/11 01:09:37;;;;;;;204.70;123.50;;;;;;;0.11;98.13;99947.72;102353;1316;70005;-73
2021/11/11 01:12:06;;;;;;;200.20;119.60;;;;;;;0.10;98.16;99948.95;102394;1316;74212;-72
2021/11/11 01:14:34;;;;;;;198.90;126.70;;;;;;;0.09;98.15;99943.02;102305;1311;61352;-72
2021/11/11 01:17:01;;;;;;;242.00;133.90;;;;;;;0.12;98.59;99940.54;102384;1310;61441;-72
2021/11/11 01:19:27;;;;;;;215.10;130.40;;;;;;;0.13;98.51;99942.63;101983;1313;75515;-72
2021/11/11 01:21:54;;;;;;;194.90;125.60;;;;;;;0.12;98.47;99942.28;102020;1316;69088;-72
2021/11/11 01:24:21;;;;;;;185.80;124.50;;;;;;;0.11;98.34;99940.02;102391;1315;73880;-72
2021/11/11 01:26:48;;;;;;;184.30;125.70;;;;;;;0.10;98.44;99935.66;102507;1316;61327;-72
2021/11/11 01:29:14;;;;;;;184.40;124.20;;;;;;;0.10;98.41;99930.94;102445;1316;61309;-73
2021/11/11 01:31:41;;;;;;;213.30;126.60;;;;;;;0.09;98.38;99929.91;102560;1310;76041;-72
2021/11/11 01:34:08;;;;;;;198.80;123.30;;;;;;;0.08;98.49;99928.68;102273;1316;70638;-72
2021/11/11 01:36:35;;;;;;;189.50;119.40;;;;;;;0.05;98.26;99929.08;102528;1310;74584;-73
2021/11/11 01:39:04;;;;;;;192.10;127.90;;;;;;;0.01;98.24;99923.70;102419;1313;61424;-73
2021/11/11 01:41:32;;;;;;;187.30;119.50;;;;;;;-0.01;98.36;99916.19;102662;1317;61324;-73
2021/11/11 01:43:59;;;;;;;164.50;114.20;;;;;;;-0.01;98.36;99912.52;102553;1316;76461;-73
2021/11/11 01:46:27;;;;;;;172.60;115.50;;;;;;;-0.03;98.46;99912.55;102747;1310;69458;-73
2021/11/11 01:48:55;;;;;;;179.00;119.50;;;;;;;-0.04;98.30;99907.48;102901;1311;73500;-73
2021/11/11 01:51:23;;;;;;;189.10;123.50;;;;;;;-0.05;98.41;99908.20;103168;1311;61333;-74
2021/11/11 01:53:51;;;;;;;178.00;118.90;;;;;;;-0.04;98.58;99909.77;104247;1310;62264;-73
2021/11/11 01:56:20;;;;;;;181.00;119.60;;;;;;;-0.04;98.39;99910.11;104898;1317;73615;-73
2021/11/11 01:58:47;;;;;;;175.10;121.50;;;;;;;-0.04;98.45;99907.66;104891;1316;70085;-72
2021/11/11 02:01:14;;;;;;;192.30;132.10;;;;;;;-0.03;98.50;99905.73;104254;1316;74227;-72
2021/11/11 02:03:41;;;;;;;193.10;126.60;;;;;;;0.00;98.59;99906.41;103794;1314;61421;-72
2021/11/11 02:06:08;;;;;;;187.00;127.10;;;;;;;-0.00;98.40;99907.98;101768;1310;1002980;-71
2021/11/11 02:08:35;;;;;;;192.60;130.70;;;;;;;0.02;98.55;99904.30;102474;1317;75123;-73
2021/11/11 02:11:03;;;;;;;191.50;134.00;;;;;;;0.07;98.78;99910.36;102410;1316;70829;-73
2021/11/11 02:13:29;;;;;;;187.70;130.90;;;;;;;0.12;98.94;99909.27;102440;1318;74493;-73
2021/11/11 02:15:56;;;;;;;188.00;130.80;;;;;;;0.17;99.02;99916.90;101864;1316;61496;-72
2021/11/11 02:18:23;;;;;;;182.50;129.20;;;;;;;0.20;98.87;99908.31;102288;1310;62309;-72
2021/11/11 02:20:50;;;;;;;186.40;131.60;;;;;;;0.24;98.87;99904.94;102119;1313;75559;-72
2021/11/11 02:23:18;;;;;;;189.30;123.80;;;;;;;0.26;98.68;99906.33;102258;1316;69509;-71
2021/11/11 02:25:46;;;;;;;190.60;129.90;;;;;;;0.27;98.70;99900.90;102329;1316;73959;-72
2021/11/11 02:28:16;;;;;;;189.40;128.50;;;;;;;0.27;98.80;99896.00;102227;1316;61430;-72
2021/11/11 02:30:45;;;;;;;185.60;129.60;;;;;;;0.29;98.83;99898.95;102406;1316;61323;-72
2021/11/11 02:33:14;;;;;;;193.60;134.60;;;;;;;0.32;98.94;99899.79;102220;1316;76495;-72
2021/11/11 02:35:42;;;;;;;194.80;134.00;;;;;;;0.35;98.90;99896.79;102251;1311;70904;-72
2021/11/11 02:38:10;;;;;;;190.70;134.20;;;;;;;0.37;98.90;99892.56;101892;1317;73492;-72
2021/11/11 02:40:38;;;;;;;177.40;124.90;;;;;;;0.38;98.83;99890.45;102246;1310;61288;-71
2021/11/11 02:43:06;;;;;;;186.70;134.20;;;;;;;0.38;98.81;99888.55;102261;1311;62472;-72
2021/11/11 02:45:36;;;;;;;194.00;136.40;;;;;;;0.37;98.79;99890.65;102355;1310;75577;-72
2021/11/11 02:48:05;;;;;;;191.30;137.10;;;;;;;0.38;98.81;99887.84;102410;1316;70077;-72
2021/11/11 02:50:32;;;;;;;194.50;136.40;;;;;;;0.38;98.72;99887.48;102365;1316;72717;-72
2021/11/11 02:53:00;;;;;;;207.80;146.90;;;;;;;0.37;98.85;99880.86;101858;1318;61426;-72
2021/11/11 02:55:27;;;;;;;207.10;146.90;;;;;;;0.39;98.94;99879.96;102302;1317;61369;-71
2021/11/11 02:57:56;;;;;;;213.30;148.60;;;;;;;0.41;99.24;99878.19;102337;1310;75679;-72
2021/11/11 03:00:41;;;;;;;203.90;143.80;;;;;;;0.46;99.31;99871.66;102322;1313;68811;-72
2021/11/11 03:03:09;;;;;;;204.00;145.40;;;;;;;0.53;99.48;99867.21;102242;1310;74445;-73
2021/11/11 03:05:36;;;;;;;214.30;150.60;;;;;;;0.55;99.30;99863.52;101524;1319;61224;-71
2021/11/11 03:08:03;;;;;;;212.40;154.00;;;;;;;0.56;99.19;99864.56;102290;1317;61390;-72
2021/11/11 03:10:32;;;;;;;205.60;149.10;;;;;;;0.58;99.21;99859.80;102276;1316;76883;-72
2021/11/11 03:13:00;;;;;;;204.20;145.50;;;;;;;0.59;99.23;99859.45;102284;1314;69358;-72
2021/11/11 03:15:28;;;;;;;198.00;144.50;;;;;;;0.55;98.87;99855.13;102209;1310;74501;-72
2021/11/11 03:17:56;;;;;;;227.00;157.00;;;;;;;0.49;98.68;99859.73;101597;1311;1003382;-72
2021/11/11 03:20:24;;;;;;;232.30;161.80;;;;;;;0.48;98.98;99862.90;102228;1316;62141;-72
2021/11/11 03:22:50;;;;;;;235.70;164.50;;;;;;;0.49;99.33;99860.09;101865;1317;74428;-72
2021/11/11 03:25:21;;;;;;;227.30;162.60;;;;;;;0.52;99.57;99858.84;102261;1310;69588;-72
2021/11/11 03:27:49;;;;;;;229.90;165.20;;;;;;;0.56;99.81;99857.38;102282;1310;74699;-72
2021/11/11 03:30:18;;;;;;;229.00;160.10;;;;;;;0.59;99.85;99848.95;101873;1316;61361;-72
2021/11/11 03:32:46;;;;;;;227.10;159.90;;;;;;;0.61;99.81;99848.23;102289;1316;61278;-72
2021/11/11 03:35:15;;;;;;;218.60;154.80;;;;;;;0.62;99.71;99848.04;102263;1316;76535;-72
2021/11/11 03:37:43;;;;;;;211.50;151.00;;;;;;;0.61;99.65;99848.41;102403;1317;69588;-74
2021/11/11 03:40:13;;;;;;;215.70;148.60;;;;;;;0.60;99.55;99853.48;102249;1317;73402;-72
2021/11/11 03:42:40;;;;;;;216.60;148.40;;;;;;;0.58;99.52;99849.48;102282;1316;61433;-72
2021/11/11 03:45:08;;;;;;;206.40;150.00;;;;;;;0.56;99.51;99854.23;102398;1311;63183;-72
2021/11/11 03:47:35;;;;;;;209.20;150.00;;;;;;;0.52;99.39;99854.29;102050;1317;75018;-72
2021/11/11 03:50:03;;;;;;;207.90;146.30;;;;;;;0.45;99.12;99859.44;101621;1310;1003135;-72
2021/11/11 03:52:29;;;;;;;204.60;145.00;;;;;;;0.38;99.20;99866.33;102147;1314;74271;-72
2021/11/11 03:54:56;;;;;;;198.30;144.50;;;;;;;0.34;99.33;99875.30;102262;1311;61324;-72
2021/11/11 03:57:23;;;;;;;217.00;154.30;;;;;;;0.34;99.52;99872.50;102266;1311;61298;-72
2021/11/11 03:59:49;;;;;;;217.20;151.10;;;;;;;0.32;99.62;99873.06;101883;1317;75574;-72
2021/11/11 04:02:16;;;;;;;211.90;147.50;;;;;;;0.30;99.66;99874.46;102289;1311;70387;-72
2021/11/11 04:04:43;;;;;;;206.10;144.40;;;;;;;0.25;99.49;99873.83;102295;1316;72978;-73
2021/11/11 04:07:10;;;;;;;193.50;140.70;;;;;;;0.20;99.29;99872.65;102253;1310;61302;-73
2021/11/11 04:09:36;;;;;;;203.30;144.50;;;;;;;0.14;99.31;99868.87;102042;1314;61386;-73
2021/11/11 04:12:04;;;;;;;193.10;139.80;;;;;;;0.09;99.21;99869.64;102317;1314;74983;-72
2021/11/11 04:14:32;;;;;;;225.10;152.80;;;;;;;0.01;99.10;99864.81;102263;1311;68506;-73
2021/11/11 04:17:00;;;;;;;219.90;156.20;;;;;;;-0.02;99.40;99863.45;101848;1317;71508;-72
2021/11/11 04:19:26;;;;;;;238.10;161.70;;;;;;;-0.04;99.65;99858.75;101536;1311;1003777;-72
2021/11/11 04:21:53;;;;;;;212.80;152.90;;;;;;;-0.05;99.81;99858.23;102263;1310;61397;-72
2021/11/11 04:24:20;;;;;;;216.80;151.20;;;;;;;-0.06;99.71;99860.35;102220;1313;76429;-72
2021/11/11 04:26:57;;;;;;;220.70;154.10;;;;;;;-0.08;99.75;99856.88;102271;1311;70948;-71
2021/11/11 04:29:29;;;;;;;211.10;147.60;;;;;;;-0.08;99.81;99853.38;102361;1316;73595;-73
2021/11/11 04:31:58;;;;;;;211.70;149.40;;;;;;;-0.11;99.65;99852.88;102383;1310;61343;-73
2021/11/11 04:34:27;;;;;;;217.50;150.90;;;;;;;-0.14;99.63;99860.09;102431;1317;62786;-72
2021/11/11 04:59:36;;;;;;;208.00;144.90;;;;;;;-0.28;99.39;99830.17;102289;1310;61266;-72
2021/11/11 05:03:43;;;;;;;209.50;144.10;;;;;;;-0.40;99.52;99828.55;102239;1313;76544;-72
2021/11/11 05:06:11;;;;;;;231.90;162.60;;;;;;;-0.42;99.61;99834.49;102353;1310;69481;-71
2021/11/11 05:08:38;;;;;;;236.70;167.40;;;;;;;-0.40;99.90;99835.34;102345;1317;73561;-72
2021/11/11 05:11:04;;;;;;;225.50;157.40;;;;;;;-0.40;99.94;99833.43;102227;1311;61419;-72
2021/11/11 05:13:32;;;;;;;233.70;160.00;;;;;;;-0.41;99.91;99832.05;102253;1312;61331;-73
2021/11/11 05:15:58;;;;;;;231.60;163.80;;;;;;;-0.43;99.89;99835.72;102254;1310;77125;-73
2021/11/11 05:18:25;;;;;;;228.90;160.60;;;;;;;-0.44;99.87;99838.87;102269;1311;70925;-72
2021/11/11 05:20:52;;;;;;;239.10;163.70;;;;;;;-0.46;99.97;99840.46;102204;1317;74475;-72
2021/11/11 05:23:19;;;;;;;228.10;160.10;;;;;;;-0.44;99.98;99838.71;102224;1310;61351;-73
2021/11/11 05:25:45;;;;;;;224.00;157.60;;;;;;;-0.43;99.98;99837.48;102278;1311;61293;-73
2021/11/11 05:28:12;;;;;;;234.20;157.10;;;;;;;-0.45;99.96;99836.26;102209;1310;76675;-73
2021/11/11 05:30:39;;;;;;;234.60;164.90;;;;;;;-0.47;100.00;99837.84;102254;1310;69710;-73
2021/11/11 05:33:07;;;;;;;245.30;165.80;;;;;;;-0.49;99.96;99841.00;102212;1311;74119;-73
2021/11/11 05:35:34;;;;;;;235.40;163.70;;;;;;;-0.49;99.99;99837.52;102218;1311;61414;-72
2021/11/11 05:38:01;;;;;;;237.20;159.20;;;;;;;-0.50;99.98;99838.39;102208;1314;62199;-72
2021/11/11 05:40:27;;;;;;;238.20;163.20;;;;;;;-0.52;99.97;99832.66;102277;1314;76499;-72
2021/11/11 05:42:54;;;;;;;230.30;160.80;;;;;;;-0.52;99.99;99830.05;102255;1314;70528;-72
2021/11/11 05:45:21;;;;;;;219.70;155.10;;;;;;;-0.53;99.99;99829.16;102316;1310;73520;-72
2021/11/11 05:47:48;;;;;;;218.00;151.90;;;;;;;-0.54;99.98;99831.27;102324;1310;61309;-73
2021/11/11 05:50:16;;;;;;;222.90;154.20;;;;;;;-0.54;99.95;99828.50;102323;1310;61328;-73
2021/11/11 05:52:44;;;;;;;224.80;154.70;;;;;;;-0.55;99.89;99828.32;102079;1311;73775;-73
2021/11/11 05:55:11;;;;;;;213.40;152.40;;;;;;;-0.58;99.72;99826.09;102268;1310;69552;-72
2021/11/11 05:57:38;;;;;;;224.20;158.30;;;;;;;-0.63;99.59;99820.89;102248;1310;74524;-72
2021/11/11 06:00:09;;;;;;;220.30;154.40;;;;;;;-0.64;99.62;99823.16;101855;1317;61396;-72
2021/11/11 06:02:36;;;;;;;217.80;156.80;;;;;;;-0.63;99.74;99824.90;102299;1310;61300;-72
2021/11/11 06:05:03;;;;;;;226.80;156.70;;;;;;;-0.62;99.80;99826.10;102299;1311;74224;-72
2021/11/11 06:07:29;;;;;;;211.70;151.90;;;;;;;-0.62;99.69;99823.66;101943;1318;70576;-73
2021/11/11 06:09:56;;;;;;;218.40;156.90;;;;;;;-0.62;99.71;99819.30;102281;1310;73464;-74
2021/11/11 06:12:22;;;;;;;224.30;162.90;;;;;;;-0.60;99.74;99827.14;102282;1310;61327;-73
2021/11/11 06:14:49;;;;;;;233.70;162.60;;;;;;;-0.58;99.70;99826.42;102328;1310;62297;-72
2021/11/11 06:17:16;;;;;;;234.40;172.00;;;;;;;-0.56;99.65;99829.20;102290;1316;75468;-72
2021/11/11 06:19:45;;;;;;;231.80;168.30;;;;;;;-0.54;99.68;99836.86;102300;1310;70829;-72
2021/11/11 06:22:11;;;;;;;230.40;164.80;;;;;;;-0.49;99.83;99832.45;102099;1311;71942;-73
2021/11/11 06:24:39;;;;;;;224.80;160.50;;;;;;;-0.43;99.94;99831.18;102316;1310;61248;-73
2021/11/11 06:27:06;;;;;;;233.70;175.00;;;;;;;-0.42;99.60;99831.89;102290;1310;62135;-72
2021/11/11 06:29:32;;;;;;;221.60;160.20;;;;;;;-0.42;99.66;99831.53;101877;1310;75490;-72
2021/11/11 06:31:59;;;;;;;223.90;169.30;;;;;;;-0.39;99.64;99829.40;102293;1310;69114;-72
2021/11/11 06:34:26;;;;;;;233.60;166.50;;;;;;;-0.35;99.74;99836.34;102256;1310;73503;-72
2021/11/11 06:36:52;;;;;;;232.00;167.50;;;;;;;-0.30;99.90;99836.98;102106;1316;61319;-73
2021/11/11 06:39:19;;;;;;;226.90;164.30;;;;;;;-0.25;99.99;99835.03;102318;1313;62157;-72
2021/11/11 06:41:46;;;;;;;223.00;166.60;;;;;;;-0.20;99.91;99831.14;102275;1310;76299;-73
2021/11/11 06:44:19;;;;;;;227.70;167.30;;;;;;;-0.15;99.88;99832.31;102327;1316;67936;-73
2021/11/11 06:46:46;;;;;;;233.60;172.90;;;;;;;-0.10;99.89;99829.99;102315;1310;73426;-73
2021/11/11 06:49:13;;;;;;;230.80;169.20;;;;;;;-0.01;99.82;99825.55;102430;1317;61317;-73
2021/11/11 06:51:39;;;;;;;226.20;165.00;;;;;;;0.04;99.63;99827.58;102314;1311;61393;-73
2021/11/11 06:54:08;;;;;;;210.20;160.00;;;;;;;0.09;99.52;99826.13;102314;1310;75762;-73
2021/11/11 06:56:36;;;;;;;207.80;156.70;;;;;;;0.16;99.58;99827.44;102091;1317;69476;-72
2021/11/11 06:59:03;;;;;;;217.10;160.70;;;;;;;0.24;99.69;99828.39;102387;1311;74539;-72
2021/11/11 07:01:30;;;;;;;211.10;158.00;;;;;;;0.31;99.64;99827.10;102195;1318;61454;-73
2021/11/11 07:03:57;;;;;;;207.60;158.30;;;;;;;0.36;99.52;99814.45;102380;1310;62154;-73
2021/11/11 07:06:24;;;;;;;211.20;157.20;;;;;;;0.44;99.69;99807.70;102341;1310;75233;-73
2021/11/11 07:08:51;;;;;;;217.00;161.10;;;;;;;0.53;99.54;99804.44;102232;1316;69615;-72
2021/11/11 07:11:17;;;;;;;204.50;157.50;;;;;;;0.60;99.55;99800.33;101929;1316;74539;-72
2021/11/11 07:13:44;;;;;;;215.50;165.00;;;;;;;0.67;99.62;99807.05;101952;1315;61365;-73
2021/11/11 07:16:11;;;;;;;211.10;156.00;;;;;;;0.76;99.56;99807.29;102385;1310;61387;-72
2021/11/11 07:18:37;;;;;;;210.40;153.70;;;;;;;0.85;99.60;99817.98;102337;1310;75561;-73
2021/11/11 07:21:04;;;;;;;200.40;150.10;;;;;;;0.96;99.58;99815.73;102441;1310;70311;-73
2021/11/11 07:23:30;;;;;;;197.90;147.60;;;;;;;1.05;99.60;99814.89;102450;1317;73383;-72
2021/11/11 07:25:57;;;;;;;189.00;146.00;;;;;;;1.15;99.59;99814.92;102327;1310;61324;-72
2021/11/11 07:28:24;;;;;;;194.60;146.00;;;;;;;1.23;99.59;99814.81;102316;1313;61835;-72
2021/11/11 07:30:51;;;;;;;224.50;178.30;;;;;;;1.32;99.49;99815.18;102169;1313;75501;-72
2021/11/11 07:33:18;;;;;;;193.20;146.90;;;;;;;1.40;99.36;99814.00;102444;1317;70434;-72
2021/11/11 07:35:45;;;;;;;180.80;141.10;;;;;;;1.47;99.43;99808.63;102572;1310;74498;-73
2021/11/11 07:38:14;;;;;;;177.80;135.50;;;;;;;1.54;99.32;99800.11;102600;1313;61293;-73
2021/11/11 07:40:41;;;;;;;186.60;143.50;;;;;;;1.61;99.24;99799.29;102394;1316;61382;-73
2021/11/11 07:43:07;;;;;;;192.80;153.60;;;;;;;1.69;99.22;99799.85;102724;1310;74756;-74
2021/11/11 07:45:34;;;;;;;191.20;145.40;;;;;;;1.76;99.17;99790.09;102701;1310;69989;-72
2021/11/11 07:48:02;;;;;;;171.90;137.40;;;;;;;1.85;99.27;99781.87;102488;1315;74573;-72
2021/11/11 07:50:32;;;;;;;166.30;130.20;;;;;;;1.94;99.26;99785.54;102643;1310;61316;-72
2021/11/11 07:53:00;;;;;;;168.90;133.70;;;;;;;2.05;99.39;99793.21;102984;1316;61605;-72
2021/11/11 07:55:28;;;;;;;171.40;129.90;;;;;;;2.15;99.31;99796.70;104364;1316;72591;-73
2021/11/11 07:57:55;;;;;;;169.30;129.50;;;;;;;2.26;99.31;99796.85;104355;1315;69474;-73
2021/11/11 08:00:22;;;;;;;150.70;121.70;;;;;;;2.36;99.22;99802.06;105343;1310;73433;-75
2021/11/11 08:02:49;;;;;;;148.50;115.20;;;;;;;2.47;99.12;99795.18;105312;1310;61204;-73
2021/11/11 08:05:19;;;;;;;144.60;113.50;;;;;;;2.57;99.00;99788.29;104847;1310;61656;-72
2021/11/11 08:07:47;;;;;;;135.80;111.00;;;;;;;2.68;99.01;99786.48;102740;1310;76766;-72
2021/11/11 08:10:17;;;;;;;139.80;111.10;;;;;;;2.79;98.88;99782.71;102491;1310;70468;-73
2021/11/11 08:12:44;;;;;;;163.80;125.20;;;;;;;2.89;98.88;99784.23;102412;1316;73286;-72
2021/11/11 08:15:11;;;;;;;167.90;129.10;;;;;;;3.00;98.83;99781.90;102428;1310;61418;-73
2021/11/11 08:17:37;;;;;;;148.60;116.40;;;;;;;3.11;98.89;99783.02;102436;1311;62163;-73
2021/11/11 08:20:06;;;;;;;135.40;112.50;;;;;;;3.22;98.80;99788.04;102398;1317;76461;-73
2021/11/11 08:22:33;;;;;;;139.50;108.70;;;;;;;3.34;98.81;99781.60;102003;1316;70099;-74
2021/11/11 08:25:00;;;;;;;128.40;106.00;;;;;;;3.44;98.71;99775.20;101878;1311;74889;-72
2021/11/11 08:27:28;;;;;;;133.70;107.90;;;;;;;3.55;98.74;99771.39;102252;1316;61414;-72
2021/11/11 08:29:55;;;;;;;127.80;101.70;;;;;;;3.67;98.77;99774.60;102285;1310;61405;-73
2021/11/11 08:32:22;;;;;;;126.50;102.70;;;;;;;3.77;98.75;99776.79;102246;1313;75373;-73
2021/11/11 08:34:50;;;;;;;130.60;104.40;;;;;;;3.87;98.66;99776.02;102245;1310;69248;-73
2021/11/11 08:37:18;;;;;;;124.00;97.80;;;;;;;3.98;98.56;99775.88;101856;1316;73789;-73
2021/11/11 08:39:45;;;;;;;118.70;95.80;;;;;;;4.09;98.65;99771.52;102274;1310;61297;-73
2021/11/11 08:42:13;;;;;;;116.30;91.50;;;;;;;4.22;98.79;99766.58;102142;1313;61411;-73
2021/11/11 08:44:42;;;;;;;114.60;92.20;;;;;;;4.34;98.62;99767.84;102337;1316;76585;-73
2021/11/11 08:47:17;;;;;;;115.50;93.20;;;;;;;4.46;98.54;99765.73;102422;1310;70884;-73
2021/11/11 08:49:46;;;;;;;112.50;86.30;;;;;;;4.57;98.30;99759.40;102378;1310;73005;-73
2021/11/11 08:52:15;;;;;;;103.90;83.90;;;;;;;4.68;98.12;99758.56;102392;1311;61319;-73
2021/11/11 08:54:42;;;;;;;106.90;79.30;;;;;;;4.77;98.02;99758.61;102318;1310;61318;-72
2021/11/11 08:57:10;;;;;;;91.20;69.30;;;;;;;4.89;97.93;99753.50;102291;1314;74920;-73
2021/11/11 08:59:38;;;;;;;87.80;64.30;;;;;;;4.99;98.02;99752.98;102491;1317;70003;-72
2021/11/11 09:02:06;;;;;;;84.20;64.60;;;;;;;5.10;97.78;99752.81;101970;1310;71559;-73
2021/11/11 09:04:32;;;;;;;79.60;62.30;;;;;;;5.22;97.89;99747.52;102461;1310;61320;-73
2021/11/11 09:07:00;;;;;;;81.50;62.20;;;;;;;5.35;97.83;99741.79;102302;1310;61770;-72
2021/11/11 09:09:27;;;;;;;61.70;48.10;;;;;;;5.49;97.78;99733.37;102260;1313;74787;-72
2021/11/11 09:11:56;;;;;;;64.60;49.60;;;;;;;5.63;97.69;99726.02;102223;1310;70430;-73
2021/11/11 09:14:22;;;;;;;70.90;53.50;;;;;;;5.77;97.55;99716.71;102234;1311;74076;-72
2021/11/11 09:16:49;;;;;;;70.90;52.20;;;;;;;5.89;97.22;99718.23;102253;1310;61407;-73
2021/11/11 09:19:16;;;;;;;66.50;50.90;;;;;;;6.00;97.01;99714.48;102283;1310;62410;-73
2021/11/11 09:21:43;;;;;;;60.40;47.00;;;;;;;6.14;97.13;99706.92;102290;1314;73437;-74
2021/11/11 09:24:10;;;;;;;62.00;45.60;;;;;;;6.29;97.00;99703.38;102314;1310;68898;-73
2021/11/11 09:26:40;;;;;;;58.20;43.70;;;;;;;6.39;96.54;99702.99;102382;1310;73943;-73
2021/11/11 09:29:08;;;;;;;58.00;45.30;;;;;;;6.46;96.39;99701.27;102364;1310;61501;-72
2021/11/11 09:31:39;;;;;;;59.30;45.70;;;;;;;6.55;96.19;99704.65;102303;1310;61416;-73
2021/11/11 09:34:06;;;;;;;65.10;47.10;;;;;;;6.63;95.88;99708.41;102291;1310;76534;-73
2021/11/11 09:36:34;;;;;;;63.60;47.50;;;;;;;6.69;95.55;99707.45;102264;1310;69009;-72
2021/11/11 09:39:03;;;;;;;57.40;43.80;;;;;;;6.74;95.26;99707.09;102253;1310;74573;-73
2021/11/11 09:41:31;;;;;;;61.30;44.30;;;;;;;6.80;95.22;99704.70;102260;1310;61727;-72
2021/11/11 09:43:57;;;;;;;57.80;45.20;;;;;;;6.92;95.28;99697.36;102220;1316;61306;-74
2021/11/11 09:46:24;;;;;;;60.10;46.60;;;;;;;7.03;95.12;99692.14;102311;1310;75900;-74
2021/11/11 09:48:51;;;;;;;60.20;46.40;;;;;;;7.15;95.19;99688.80;102321;1310;69536;-73
2021/11/11 09:51:21;;;;;;;57.60;45.60;;;;;;;7.28;94.85;99692.69;102339;1310;73451;-73
2021/11/11 09:53:56;;;;;;;61.20;46.70;;;;;;;7.33;94.35;99690.34;102286;1310;61738;-74
2021/11/11 09:59:09;;;;;;;61.90;44.60;;;;;;;7.45;93.32;99697.80;102238;1310;75447;-73
2021/11/11 10:01:36;;;;;;;61.20;45.10;;;;;;;7.44;93.25;99695.19;102255;1310;70575;-73
2021/11/11 10:04:04;;;;;;;60.40;45.80;;;;;;;7.48;93.14;99691.45;102279;1310;73528;-73
2021/11/11 10:06:31;;;;;;;60.20;45.40;;;;;;;7.54;92.82;99694.42;102536;1310;61384;-71
2021/11/11 10:09:01;;;;;;;65.80;44.30;;;;;;;7.57;92.31;99691.43;102823;1316;61295;-85
2021/11/11 10:11:34;;;;;;;59.90;45.30;;;;;;;7.64;92.57;99684.23;102636;1313;75446;-90
2021/11/11 10:14:14;;;;;;;64.30;45.60;;;;;;;7.76;92.71;99682.83;102936;1310;70451;-85
2021/11/11 10:16:42;;;;;;;56.30;42.60;;;;;;;7.85;92.70;99676.73;102595;1311;74367;-76
2021/11/11 10:19:09;;;;;;;52.80;39.60;;;;;;;7.94;92.13;99675.67;102774;1310;61306;-78
2021/11/11 10:22:21;;;;;;;54.60;39.70;;;;;;;7.98;91.74;99676.73;102675;1310;61228;-79
2021/11/11 10:24:46;;;;;;;52.80;39.80;;;;;;;8.06;91.68;99671.55;102610;1310;75495;-84
2021/11/11 10:27:25;;;;;;;53.40;40.40;;;;;;;8.15;91.62;99670.64;104918;1310;69557;-83
2021/11/11 10:30:06;;;;;;;48.40;37.80;;;;;;;8.23;91.47;99674.52;104366;1310;72625;-81
2021/11/11 10:32:43;;;;;;;52.70;39.10;;;;;;;8.30;91.18;99669.02;102506;1311;61491;-79
2021/11/11 10:35:25;;;;;;;53.60;41.60;;;;;;;8.36;91.01;99669.82;102284;1310;61276;-74
2021/11/11 10:37:59;;;;;;;52.70;39.50;;;;;;;8.41;90.56;99670.34;102285;1316;75927;-75
2021/11/11 10:40:29;;;;;;;53.90;38.60;;;;;;;8.44;90.69;99672.13;102266;1317;70913;-73
2021/11/11 10:42:57;;;;;;;49.50;39.50;;;;;;;8.53;90.75;99673.49;102302;1310;74680;-75
2021/11/11 10:45:27;;;;;;;54.60;40.80;;;;;;;8.65;90.89;99673.10;101846;1317;61481;-75
2021/11/11 10:47:58;;;;;;;49.80;38.50;;;;;;;8.75;90.64;99667.45;102299;1310;61334;-73
2021/11/11 10:50:28;;;;;;;48.00;38.00;;;;;;;8.81;90.13;99663.29;101900;1316;74430;-74
2021/11/11 10:53:00;;;;;;;44.10;34.80;;;;;;;8.85;90.01;99658.66;102331;1310;69487;-73
2021/11/11 10:55:33;;;;;;;47.00;36.90;;;;;;;8.94;90.15;99662.80;102262;1310;74490;-72
2021/11/11 10:58:03;;;;;;;49.30;37.50;;;;;;;8.99;89.76;99657.77;102256;1310;61317;-74
2021/11/11 11:00:33;;;;;;;49.20;36.70;;;;;;;9.06;89.95;99657.94;102223;1310;61310;-74
2021/11/11 11:03:23;;;;;;;49.40;37.20;;;;;;;9.15;89.65;99656.08;102255;1310;76658;-73
2021/11/11 11:05:56;;;;;;;48.50;38.00;;;;;;;9.20;89.29;99659.71;102250;1311;69953;-74
2021/11/11 11:08:30;;;;;;;46.60;35.40;;;;;;;9.25;89.21;99658.40;102261;1310;74593;-72
2021/11/11 11:11:05;;;;;;;47.10;34.40;;;;;;;9.29;88.96;99661.95;102298;1313;61434;-72
2021/11/11 11:13:36;;;;;;;49.50;36.70;;;;;;;9.33;88.47;99655.55;101816;1316;61961;-72
2021/11/11 11:16:06;;;;;;;50.40;35.90;;;;;;;9.36;88.21;99651.12;102303;1310;75602;-72
2021/11/11 11:18:39;;;;;;;45.80;36.50;;;;;;;9.41;88.37;99647.09;102014;1316;67781;-73
2021/11/11 11:21:16;;;;;;;45.60;34.10;;;;;;;9.48;88.43;99646.94;102256;1310;74451;-73
2021/11/11 11:23:51;;;;;;;48.40;34.40;;;;;;;9.54;88.18;99640.97;102242;1316;61664;-73
2021/11/11 11:26:46;;;;;;;48.10;36.00;;;;;;;9.57;87.80;99646.85;102069;1313;61669;-73
2021/11/11 11:29:17;;;;;;;52.30;38.10;;;;;;;9.61;88.07;99646.98;101241;1328;74804;-74
2021/11/11 11:32:07;;;;;;;45.80;36.90;;;;;;;9.62;88.08;99643.89;101445;1322;69837;-73
2021/11/11 11:34:45;;;;;;;52.10;37.40;;;;;;;9.65;87.96;99645.01;101479;1322;72893;-74
2021/11/11 11:37:15;;;;;;;45.80;34.30;;;;;;;9.68;87.87;99649.63;101310;1322;61392;-73